createdAt,value
2019-01-30T00:02:04.116Z,8.40
2019-01-30T00:04:33.366Z,8.95
2019-01-30T00:07:02.490Z,8.20
2019-01-30T00:09:31.601Z,7.70
2019-01-30T00:12:00.829Z,8.83
2019-01-30T00:14:30.055Z,8.00
2019-01-30T00:16:59.315Z,9.18
2019-01-30T00:19:28.500Z,8.80
2019-01-30T00:21:57.698Z,9.20
2019-01-30T00:24:26.890Z,9.77
2019-01-30T00:26:56.208Z,8.90
2019-01-30T00:29:25.403Z,9.00
2019-01-30T00:31:54.974Z,8.60
2019-01-30T00:34:24.238Z,8.75
2019-01-30T00:36:53.465Z,8.53
2019-01-30T00:39:22.687Z,9.20
2019-01-30T00:41:51.854Z,8.77
2019-01-30T00:44:21.038Z,8.23
2019-01-30T00:46:50.244Z,7.93
2019-01-30T00:49:19.538Z,7.20
2019-01-30T00:51:48.822Z,8.23
2019-01-30T00:54:17.938Z,7.50
2019-01-30T00:56:47.096Z,7.00
2019-01-30T00:59:16.286Z,6.83
2019-01-30T01:01:45.821Z,5.87
2019-01-30T01:04:14.968Z,6.58
2019-01-30T01:06:44.475Z,6.60
2019-01-30T01:09:14.115Z,7.20
2019-01-30T01:11:43.247Z,6.53
2019-01-30T01:14:12.900Z,7.10
2019-01-30T01:16:42.615Z,7.57
2019-01-30T01:19:11.867Z,6.40
2019-01-30T01:21:41.423Z,6.73
2019-01-30T01:24:10.652Z,7.75
2019-01-30T01:26:40.131Z,7.07
2019-01-30T01:29:09.330Z,6.17
2019-01-30T01:31:38.575Z,7.17
2019-01-30T01:34:07.782Z,5.90
2019-01-30T01:36:36.980Z,6.10
2019-01-30T01:39:08.620Z,6.20
2019-01-30T01:41:40.375Z,7.30
2019-01-30T01:44:09.799Z,6.40
2019-01-30T01:46:39.610Z,6.85
2019-01-30T01:49:08.873Z,7.10
2019-01-30T01:51:38.712Z,6.70
2019-01-30T01:54:08.175Z,6.40
2019-01-30T01:56:37.302Z,7.20
2019-01-30T01:59:06.788Z,7.87
2019-01-30T02:01:36.457Z,7.10
2019-01-30T02:04:05.631Z,7.03
2019-01-30T02:06:34.872Z,6.73
2019-01-30T02:09:07.734Z,6.80
2019-01-30T02:11:37.309Z,7.50
2019-01-30T02:14:06.595Z,7.43
2019-01-30T02:16:35.944Z,7.43
2019-01-30T02:19:05.093Z,7.70
2019-01-30T02:21:34.306Z,7.70
2019-01-30T02:24:03.742Z,7.30
2019-01-30T02:26:33.173Z,7.28
2019-01-30T02:29:02.672Z,7.95
2019-01-30T02:31:32.251Z,8.10
2019-01-30T02:34:02.098Z,8.37
2019-01-30T02:36:33.276Z,7.73
2019-01-30T02:39:04.118Z,8.60
2019-01-30T02:41:33.238Z,7.58
2019-01-30T02:44:02.889Z,9.33
2019-01-30T02:46:32.093Z,8.70
2019-01-30T02:49:01.208Z,9.20
2019-01-30T02:51:30.689Z,9.67
2019-01-30T02:54:00.072Z,9.53
2019-01-30T02:56:29.215Z,7.95
2019-01-30T02:58:58.367Z,9.80
2019-01-30T03:01:27.950Z,9.30
2019-01-30T03:03:57.095Z,9.30
2019-01-30T03:06:27.123Z,8.90
2019-01-30T03:08:56.327Z,8.43
2019-01-30T03:11:25.429Z,8.90
2019-01-30T03:13:54.641Z,8.63
2019-01-30T03:16:24.224Z,9.07
2019-01-30T03:18:53.466Z,8.97
2019-01-30T03:21:22.599Z,9.10
2019-01-30T03:23:51.939Z,8.85
2019-01-30T03:26:21.051Z,9.10
2019-01-30T03:28:50.232Z,9.80
2019-01-30T03:31:32.390Z,8.30
2019-01-30T03:34:03.735Z,8.50
2019-01-30T03:36:39.405Z,8.90
2019-01-30T03:39:10.154Z,9.97
2019-01-30T03:41:47.807Z,8.97
2019-01-30T03:44:18.747Z,8.53
2019-01-30T03:46:48.045Z,8.80
2019-01-30T03:49:17.187Z,9.17
2019-01-30T03:51:46.341Z,9.50
2019-01-30T03:54:15.522Z,9.90
2019-01-30T03:56:44.803Z,9.50
2019-01-30T03:59:13.968Z,9.43
2019-01-30T04:01:43.180Z,8.90
2019-01-30T04:04:12.331Z,8.07
2019-01-30T04:06:41.495Z,9.20
2019-01-30T04:09:10.789Z,7.77
2019-01-30T04:11:39.890Z,8.65
2019-01-30T04:14:09.599Z,8.60
2019-01-30T04:16:39.267Z,21.43
2019-01-30T04:19:08.746Z,10.30
2019-01-30T04:21:38.275Z,8.57
2019-01-30T04:24:07.768Z,8.33
2019-01-30T04:26:36.948Z,8.07
2019-01-30T04:29:06.201Z,7.55
2019-01-30T04:31:38.258Z,8.27
2019-01-30T04:34:07.326Z,7.10
2019-01-30T04:36:37.768Z,6.30
2019-01-30T04:39:08.440Z,7.90
2019-01-30T04:41:37.669Z,7.30
2019-01-30T04:44:06.843Z,7.57
2019-01-30T04:46:39.019Z,8.35
2019-01-30T04:49:10.696Z,7.55
2019-01-30T04:51:40.263Z,7.93
2019-01-30T04:54:09.451Z,8.00
2019-01-30T04:56:38.995Z,7.67
2019-01-30T04:59:08.473Z,8.10
2019-01-30T05:01:49.234Z,7.90
2019-01-30T05:04:08.847Z,7.65
2019-01-30T05:06:38.750Z,7.92
2019-01-30T05:09:09.789Z,8.65
2019-01-30T05:11:39.279Z,7.75
2019-01-30T05:14:08.758Z,6.95
2019-01-30T05:16:41.319Z,7.45
2019-01-30T05:19:11.748Z,8.45
2019-01-30T05:21:52.214Z,8.25
2019-01-30T05:24:14.795Z,7.50
2019-01-30T05:26:49.778Z,8.58
2019-01-30T05:29:22.755Z,7.47
2019-01-30T05:32:01.354Z,8.33
2019-01-30T05:34:38.650Z,8.00
2019-01-30T05:37:10.358Z,8.87
2019-01-30T05:39:44.815Z,9.60
2019-01-30T05:42:13.959Z,9.53
2019-01-30T05:44:43.219Z,8.23
2019-01-30T05:47:13.656Z,7.83
2019-01-30T05:49:43.271Z,8.40
2019-01-30T05:52:15.963Z,7.90
2019-01-30T05:54:47.734Z,9.20
2019-01-30T05:57:17.079Z,8.63
2019-01-30T05:59:46.322Z,8.90
2019-01-30T06:02:16.043Z,9.00
2019-01-30T06:04:45.292Z,7.53
2019-01-30T06:07:14.702Z,8.63
2019-01-30T06:09:43.976Z,8.33
2019-01-30T06:12:13.383Z,8.28
2019-01-30T06:14:43.035Z,8.23
2019-01-30T06:17:12.783Z,9.13
2019-01-30T06:19:42.968Z,9.00
2019-01-30T06:22:12.284Z,8.47
2019-01-30T06:24:41.460Z,8.13
2019-01-30T06:27:10.642Z,9.03
2019-01-30T06:29:40.149Z,8.43
2019-01-30T06:32:09.312Z,9.10
2019-01-30T06:34:38.853Z,9.45
2019-01-30T06:37:08.019Z,10.00
2019-01-30T06:39:37.109Z,9.90
2019-01-30T06:42:06.366Z,9.40
2019-01-30T06:44:35.516Z,10.07
2019-01-30T06:47:05.037Z,9.53
2019-01-30T06:49:34.203Z,9.07
2019-01-30T06:52:03.534Z,8.67
2019-01-30T06:54:32.758Z,10.37
2019-01-30T06:57:01.900Z,10.48
2019-01-30T06:59:38.341Z,11.50
2019-01-30T07:02:07.562Z,15.47
2019-01-30T07:04:36.811Z,12.83
2019-01-30T07:07:06.328Z,15.30
2019-01-30T07:09:35.561Z,22.03
2019-01-30T07:12:04.675Z,21.03
2019-01-30T07:14:33.904Z,25.88
2019-01-30T07:17:03.138Z,17.07
2019-01-30T07:19:32.355Z,13.70
2019-01-30T07:22:03.134Z,13.97
2019-01-30T07:24:32.400Z,14.00
2019-01-30T07:27:02.087Z,13.67
2019-01-30T07:29:31.707Z,14.00
2019-01-30T07:32:00.910Z,12.93
2019-01-30T07:34:30.198Z,13.80
2019-01-30T07:37:10.774Z,15.53
2019-01-30T07:39:49.626Z,17.00
2019-01-30T07:45:40.078Z,16.10
2019-01-30T07:48:16.551Z,15.38
2019-01-30T07:50:48.839Z,14.00
2019-01-30T07:53:30.877Z,16.53
2019-01-30T07:56:21.519Z,14.73
2019-01-30T07:59:15.706Z,15.90
2019-01-30T08:03:43.155Z,16.20
2019-01-30T08:04:42.134Z,15.83
2019-01-30T08:07:11.491Z,13.60
2019-01-30T08:10:00.391Z,15.80
2019-01-30T08:12:38.861Z,16.97
2019-01-30T08:15:22.195Z,16.67
2019-01-30T08:18:03.943Z,16.60
2019-01-30T08:20:34.920Z,15.58
2019-01-30T08:23:08.749Z,15.78
2019-01-30T08:25:46.073Z,18.60
2019-01-30T08:28:41.473Z,17.00
2019-01-30T08:31:14.755Z,16.70
2019-01-30T08:33:56.672Z,17.47
2019-01-30T08:36:38.582Z,18.67
2019-01-30T08:39:16.396Z,16.48
2019-01-30T08:45:04.245Z,15.73
2019-01-30T08:47:35.115Z,17.43
2019-01-30T08:50:27.456Z,17.10
2019-01-30T08:53:04.519Z,17.80
2019-01-30T08:55:43.682Z,17.27
2019-01-30T08:58:22.970Z,14.63
2019-01-30T09:00:59.049Z,15.60
2019-01-30T09:03:33.214Z,13.90
2019-01-30T09:06:11.721Z,13.73
2019-01-30T09:08:46.913Z,14.10
2019-01-30T09:11:24.244Z,13.35
2019-01-30T09:13:55.171Z,13.70
2019-01-30T09:16:29.596Z,14.13
2019-01-30T09:19:25.376Z,13.97
2019-01-30T09:22:37.761Z,12.93
2019-01-30T09:25:50.060Z,13.27
2019-01-30T09:28:30.145Z,13.13
2019-01-30T09:31:07.900Z,12.07
2019-01-30T09:33:40.993Z,15.05
2019-01-30T09:36:15.657Z,13.13
2019-01-30T09:38:48.663Z,14.00
2019-01-30T09:41:35.001Z,14.23
2019-01-30T09:44:14.539Z,13.28
2019-01-30T09:47:00.756Z,13.23
2019-01-30T09:49:46.864Z,13.63
2019-01-30T09:52:27.379Z,14.23
2019-01-30T09:55:07.075Z,12.15
2019-01-30T09:57:44.190Z,14.27
2019-01-30T10:00:33.504Z,14.07
2019-01-30T10:03:05.617Z,13.83
2019-01-30T10:05:36.597Z,12.60
2019-01-30T10:08:10.949Z,13.33
2019-01-30T10:10:56.235Z,13.80
2019-01-30T10:13:30.152Z,13.30
2019-01-30T10:16:05.139Z,13.33
2019-01-30T10:18:49.751Z,13.23
2019-01-30T10:21:30.646Z,13.30
2019-01-30T10:24:12.491Z,14.33
2019-01-30T10:26:45.226Z,13.80
2019-01-30T10:29:18.527Z,13.93
2019-01-30T10:31:54.822Z,11.60
2019-01-30T10:34:30.826Z,12.10
2019-01-30T10:37:04.930Z,12.20
2019-01-30T10:39:36.966Z,13.03
2019-01-30T10:42:14.128Z,13.85
2019-01-30T10:44:45.467Z,12.50
2019-01-30T10:47:18.074Z,12.10
2019-01-30T10:49:59.826Z,12.10
2019-01-30T10:52:36.745Z,13.38
2019-01-30T10:55:13.171Z,12.82
2019-01-30T10:57:55.672Z,12.67
2019-01-30T11:00:47.092Z,12.30
2019-01-30T11:03:20.540Z,11.27
2019-01-30T11:05:54.240Z,11.10
2019-01-30T11:08:27.280Z,12.00
2019-01-30T11:11:07.647Z,12.27
2019-01-30T11:13:37.296Z,11.87
2019-01-30T11:16:11.544Z,12.20
2019-01-30T11:18:43.860Z,10.47
2019-01-30T11:21:16.662Z,10.97
2019-01-30T11:23:57.185Z,11.90
2019-01-30T11:26:29.623Z,10.90
2019-01-30T11:29:08.085Z,10.95
2019-01-30T11:31:46.721Z,10.73
2019-01-30T11:34:29.467Z,10.63
2019-01-30T11:37:06.855Z,10.65
2019-01-30T11:39:41.087Z,11.28
2019-01-30T11:42:17.353Z,10.70
2019-01-30T11:44:50.904Z,11.20
2019-01-30T11:47:23.182Z,10.10
2019-01-30T11:49:58.943Z,9.60
2019-01-30T11:52:30.680Z,11.63
2019-01-30T11:55:07.087Z,11.37
2019-01-30T11:57:40.367Z,9.80
2019-01-30T12:00:22.345Z,10.38
2019-01-30T12:02:58.220Z,10.07
2019-01-30T12:05:36.300Z,9.30
2019-01-30T12:08:09.519Z,9.87
2019-01-30T12:10:51.914Z,10.15
2019-01-30T12:13:29.246Z,10.93
2019-01-30T12:16:03.458Z,9.90
2019-01-30T12:18:33.988Z,10.77
2019-01-30T12:21:09.915Z,9.85
2019-01-30T12:23:45.839Z,10.08
2019-01-30T12:26:20.204Z,10.40
2019-01-30T12:28:56.482Z,10.37
2019-01-30T12:31:38.925Z,11.12
2019-01-30T12:34:15.855Z,10.23
2019-01-30T12:36:51.574Z,9.08
2019-01-30T12:39:25.248Z,10.37
2019-01-30T12:42:07.870Z,10.90
2019-01-30T12:44:42.925Z,9.80
2019-01-30T12:47:20.073Z,9.95
2019-01-30T12:49:58.726Z,9.37
2019-01-30T12:52:31.912Z,9.63
2019-01-30T12:55:08.280Z,9.20
2019-01-30T12:57:44.978Z,9.20
2019-01-30T13:00:31.299Z,10.82
2019-01-30T13:03:05.474Z,9.60
2019-01-30T13:05:43.475Z,9.85
2019-01-30T13:08:22.968Z,8.60
2019-01-30T13:11:03.508Z,10.20
2019-01-30T13:13:49.483Z,9.60
2019-01-30T13:16:25.804Z,10.20
2019-01-30T13:18:59.227Z,9.28
2019-01-30T13:21:41.536Z,9.97
2019-01-30T13:24:16.978Z,9.60
2019-01-30T13:26:51.368Z,9.28
2019-01-30T13:29:24.310Z,10.13
2019-01-30T13:31:59.121Z,9.07
2019-01-30T13:34:36.592Z,9.30
2019-01-30T13:37:10.757Z,8.73
2019-01-30T13:39:50.790Z,9.70
2019-01-30T13:42:20.130Z,9.67
2019-01-30T13:44:58.932Z,9.07
2019-01-30T13:47:34.794Z,7.97
2019-01-30T13:50:10.603Z,9.80
2019-01-30T13:52:44.197Z,7.60
2019-01-30T13:55:28.069Z,7.90
2019-01-30T13:58:04.301Z,7.77
2019-01-30T14:00:35.919Z,9.33
2019-01-30T14:03:08.619Z,6.37
2019-01-30T14:05:43.884Z,6.37
2019-01-30T14:08:17.231Z,5.85
2019-01-30T14:10:49.472Z,5.60
2019-01-30T14:13:28.975Z,4.83
2019-01-30T14:16:02.548Z,5.03
2019-01-30T14:18:36.230Z,5.20
2019-01-30T14:21:11.290Z,2.60
2019-01-30T14:23:43.635Z,2.80
2019-01-30T14:26:21.967Z,2.27
2019-01-30T14:28:52.755Z,1.57
2019-01-30T14:31:30.811Z,2.00
2019-01-30T14:34:05.283Z,1.72
2019-01-30T14:36:37.726Z,1.73
2019-01-30T14:39:19.577Z,2.17
2019-01-30T14:42:01.570Z,1.80
2019-01-30T14:44:36.844Z,2.30
2019-01-30T14:47:30.112Z,2.00
2019-01-30T14:50:05.216Z,2.10
2019-01-30T14:52:37.955Z,2.00
2019-01-30T14:55:14.167Z,2.73
2019-01-30T14:57:52.336Z,3.13
2019-01-30T15:00:35.437Z,2.30
2019-01-30T15:03:12.905Z,2.10
2019-01-30T15:05:45.950Z,2.50
2019-01-30T15:08:15.233Z,2.40
2019-01-30T15:10:51.591Z,2.47
2019-01-30T15:13:27.579Z,3.40
2019-01-30T15:15:58.949Z,2.87
2019-01-30T15:18:38.469Z,2.83
2019-01-30T15:21:18.519Z,3.30
2019-01-30T15:23:55.515Z,3.08
2019-01-30T15:26:28.546Z,3.97
2019-01-30T15:29:07.489Z,4.23
2019-01-30T15:31:42.022Z,3.47
2019-01-30T15:34:13.124Z,3.17
2019-01-30T15:36:50.528Z,3.40
2019-01-30T15:39:23.793Z,3.40
2019-01-30T15:42:01.158Z,3.90
2019-01-30T15:44:34.051Z,4.50
2019-01-30T15:47:10.670Z,3.83
2019-01-30T15:49:45.540Z,3.85
2019-01-30T15:52:21.139Z,4.53
2019-01-30T15:54:58.912Z,4.83
2019-01-30T15:57:30.651Z,4.87
2019-01-30T16:00:07.995Z,5.03
2019-01-30T16:02:40.852Z,5.03
2019-01-30T16:05:26.209Z,5.40
2019-01-30T16:08:11.074Z,6.70
2019-01-30T16:10:44.599Z,6.22
2019-01-30T16:13:20.761Z,7.33
2019-01-30T16:16:02.679Z,7.55
2019-01-30T16:18:36.632Z,7.33
2019-01-30T16:21:15.419Z,8.00
2019-01-30T16:23:47.784Z,8.50
2019-01-30T16:27:09.932Z,8.78
2019-01-30T16:33:15.302Z,8.30
2019-01-30T16:35:55.248Z,7.80
2019-01-30T16:38:16.395Z,8.40
2019-01-30T16:40:45.827Z,8.73
2019-01-30T16:43:15.835Z,8.77
2019-01-30T16:46:07.065Z,9.55
2019-01-30T16:48:37.555Z,9.80
2019-01-30T16:51:06.814Z,9.50
2019-01-30T16:53:43.014Z,9.37
2019-01-30T16:56:13.516Z,8.88
2019-01-30T16:59:14.317Z,8.37
2019-01-30T17:01:52.894Z,9.23
2019-01-30T17:04:23.913Z,9.50
2019-01-30T17:06:53.067Z,9.50
2019-01-30T17:09:24.079Z,9.53
2019-01-30T17:11:54.681Z,9.08
2019-01-30T17:14:37.743Z,10.73
2019-01-30T17:18:05.341Z,9.23
2019-01-30T17:20:34.263Z,8.87
2019-01-30T17:23:03.771Z,10.57
2019-01-30T17:25:34.370Z,10.57
2019-01-30T17:28:05.919Z,10.33
2019-01-30T17:31:04.154Z,9.05
2019-01-30T17:33:41.187Z,8.90
2019-01-30T17:36:18.189Z,9.70
2019-01-30T17:38:41.004Z,9.93
2019-01-30T17:41:10.138Z,8.88
2019-01-30T17:43:39.311Z,9.53
2019-01-30T17:46:09.258Z,8.98
2019-01-30T17:48:38.991Z,10.33
2019-01-30T17:51:08.168Z,11.10
2019-01-30T17:53:37.313Z,10.10
2019-01-30T17:56:07.035Z,10.10
2019-01-30T17:58:36.310Z,11.10
2019-01-30T18:01:05.941Z,10.60
2019-01-30T18:03:35.291Z,10.03
2019-01-30T18:06:05.135Z,9.17
2019-01-30T18:08:35.374Z,9.27
2019-01-30T18:11:04.608Z,9.47
2019-01-30T18:13:33.822Z,9.93
2019-01-30T18:16:03.458Z,10.90
2019-01-30T18:18:32.605Z,9.83
2019-01-30T18:21:02.195Z,11.90
2019-01-30T18:23:31.338Z,10.68
2019-01-30T18:26:01.306Z,10.10
2019-01-30T18:28:30.813Z,9.60
2019-01-30T18:31:00.077Z,9.83
2019-01-30T18:33:29.270Z,11.10
2019-01-30T18:35:59.456Z,9.73
2019-01-30T18:38:28.809Z,10.10
2019-01-30T18:40:58.307Z,10.50
2019-01-30T18:43:28.238Z,10.87
2019-01-30T18:45:57.761Z,11.83
2019-01-30T18:48:27.032Z,11.90
2019-01-30T18:50:57.060Z,11.33
2019-01-30T18:53:26.347Z,10.63
2019-01-30T18:55:55.642Z,10.00
2019-01-30T18:58:27.818Z,10.47
2019-01-30T19:00:57.063Z,10.60
2019-01-30T19:03:26.232Z,10.75
2019-01-30T19:05:55.521Z,10.47
2019-01-30T19:08:24.669Z,10.57
2019-01-30T19:10:53.826Z,9.93
2019-01-30T19:13:23.376Z,11.10
2019-01-30T19:15:52.911Z,11.70
2019-01-30T19:18:22.151Z,9.80
2019-01-30T19:20:51.282Z,10.55
2019-01-30T19:23:20.439Z,9.23
2019-01-30T19:25:49.701Z,10.37
2019-01-30T19:28:18.967Z,10.43
2019-01-30T19:30:48.141Z,12.07
2019-01-30T19:33:20.089Z,10.30
2019-01-30T19:35:52.199Z,9.73
2019-01-30T19:38:20.299Z,9.00
2019-01-30T19:40:49.940Z,9.70
2019-01-30T19:43:19.205Z,9.40
2019-01-30T19:45:48.897Z,11.30
2019-01-30T19:48:18.098Z,10.80
2019-01-30T19:50:52.964Z,11.03
2019-01-30T19:53:22.495Z,10.63
2019-01-30T19:55:51.713Z,10.20
2019-01-30T19:58:20.923Z,10.20
2019-01-30T20:00:50.207Z,10.63
2019-01-30T20:03:24.498Z,10.10
2019-01-30T20:05:53.695Z,9.10
2019-01-30T20:08:22.984Z,9.77
2019-01-30T20:10:52.288Z,10.13
2019-01-30T20:13:21.474Z,9.63
2019-01-30T20:15:50.632Z,10.53
2019-01-30T20:18:22.229Z,10.80
2019-01-30T20:20:51.865Z,9.08
2019-01-30T20:23:21.100Z,9.23
2019-01-30T20:25:50.543Z,9.23
2019-01-30T20:28:19.649Z,8.87
2019-01-30T20:30:48.867Z,8.20
2019-01-30T20:33:18.069Z,7.67
2019-01-30T20:35:47.272Z,7.47
2019-01-30T20:38:16.820Z,7.87
2019-01-30T20:40:46.066Z,7.90
2019-01-30T20:43:15.651Z,8.10
2019-01-30T20:45:44.822Z,7.27
2019-01-30T20:48:14.141Z,6.30
2019-01-30T20:50:43.575Z,6.63
2019-01-30T20:53:13.012Z,6.20
2019-01-30T20:55:42.174Z,7.10
2019-01-30T20:58:11.396Z,6.00
2019-01-30T21:00:40.833Z,5.80
2019-01-30T21:03:10.095Z,5.93
2019-01-30T21:05:39.255Z,5.73
2019-01-30T21:08:08.614Z,5.13
2019-01-30T21:10:40.219Z,5.67
2019-01-30T21:13:12.144Z,6.07
2019-01-30T21:15:50.200Z,4.67
2019-01-30T21:18:19.507Z,5.10
2019-01-30T21:20:48.706Z,5.70
2019-01-30T21:23:18.274Z,4.90
2019-01-30T21:25:50.937Z,5.10
2019-01-30T21:28:20.133Z,5.37
2019-01-30T21:30:56.623Z,4.83
2019-01-30T21:33:25.807Z,3.80
2019-01-30T21:35:54.976Z,4.80
2019-01-30T21:38:24.177Z,4.62
2019-01-30T21:40:53.620Z,5.12
2019-01-30T21:43:33.648Z,4.00
2019-01-30T21:46:03.236Z,4.40
2019-01-30T21:48:32.844Z,4.90
2019-01-30T21:51:02.099Z,4.67
2019-01-30T21:53:31.709Z,4.30
2019-01-30T21:56:01.293Z,4.63
2019-01-30T21:58:31.345Z,5.50
2019-01-30T22:01:00.821Z,3.95
2019-01-30T22:03:30.532Z,4.40
2019-01-30T22:05:59.779Z,4.07
2019-01-30T22:08:32.076Z,3.42
2019-01-30T22:11:01.350Z,4.33
2019-01-30T22:13:30.755Z,4.10
2019-01-30T22:16:01.858Z,3.83
2019-01-30T22:18:31.521Z,4.00
2019-01-30T22:21:01.210Z,3.80
2019-01-30T22:23:30.794Z,3.50
2019-01-30T22:26:00.344Z,3.77
2019-01-30T22:28:29.616Z,3.67
2019-01-30T22:30:58.979Z,3.90
2019-01-30T22:33:36.896Z,3.30
2019-01-30T22:36:09.030Z,3.77
2019-01-30T22:38:39.116Z,4.03
2019-01-30T22:41:08.711Z,3.93
2019-01-30T22:43:41.399Z,3.67
2019-01-30T22:46:10.519Z,4.00
2019-01-30T22:48:40.065Z,3.77
2019-01-30T22:51:09.911Z,3.40
2019-01-30T22:53:39.153Z,3.17
2019-01-30T22:56:08.405Z,4.13
2019-01-30T22:58:40.109Z,4.03
2019-01-30T23:01:32.896Z,3.80
2019-01-30T23:04:30.080Z,4.00
2019-01-30T23:07:30.176Z,4.10
2019-01-30T23:10:46.500Z,5.03
2019-01-30T23:13:55.268Z,3.70
2019-01-30T23:17:05.502Z,3.80
2019-01-30T23:20:12.974Z,3.90
2019-01-30T23:23:07.056Z,3.10
2019-01-30T23:26:04.813Z,3.93
2019-01-30T23:29:02.893Z,3.40
2019-01-30T23:31:41.269Z,4.00
2019-01-30T23:34:47.780Z,4.27
2019-01-30T23:38:09.903Z,4.22
2019-01-30T23:41:38.510Z,4.50
2019-01-30T23:44:56.050Z,4.87
2019-01-30T23:48:20.595Z,5.00
2019-01-30T23:51:49.284Z,3.80
2019-01-30T23:54:35.808Z,4.10
2019-01-30T23:57:29.236Z,4.90
